sensor_id;sensor_type;location;lat;lon;timestamp;pressure;altitude;pressure_sealevel;temperature;humidity
46347;BME280;32057;47.830;19.046;2022-12-07T00:00:54;100130.53;;;4.58;100.00
46347;BME280;32057;47.830;19.046;2022-12-07T00:03:19;100127.00;;;4.56;100.00
46347;BME280;32057;47.830;19.046;2022-12-07T00:05:45;100126.06;;;4.54;100.00
46347;BME280;32057;47.830;19.046;2022-12-07T00:08:10;100115.50;;;4.48;100.00
46347;BME280;32057;47.830;19.046;2022-12-07T00:10:36;100115.50;;;4.48;100.00
46347;BME280;32057;47.830;19.046;2022-12-07T00:13:01;100122.72;;;4.36;100.00
46347;BME280;32057;47.830;19.046;2022-12-07T00:15:26;100116.81;;;4.17;100.00
46347;BME280;32057;47.830;19.046;2022-12-07T00:17:52;100119.53;;;4.01;100.00
46347;BME280;32057;47.830;19.046;2022-12-07T00:20:17;100115.53;;;3.88;100.00
46347;BME280;32057;47.830;19.046;2022-12-07T00:22:42;100118.72;;;3.83;100.00
46347;BME280;32057;47.830;19.046;2022-12-07T00:25:08;100109.63;;;3.71;100.00
46347;BME280;32057;47.830;19.046;2022-12-07T00:27:33;100114.41;;;3.62;100.00
46347;BME280;32057;47.830;19.046;2022-12-07T00:29:59;100106.19;;;3.51;100.00
46347;BME280;32057;47.830;19.046;2022-12-07T00:32:24;100106.94;;;3.49;100.00
46347;BME280;32057;47.830;19.046;2022-12-07T00:34:50;100106.38;;;3.36;100.00
46347;BME280;32057;47.830;19.046;2022-12-07T00:37:15;100103.50;;;3.11;100.00
46347;BME280;32057;47.830;19.046;2022-12-07T00:39:40;100115.09;;;3.03;100.00
46347;BME280;32057;47.830;19.046;2022-12-07T00:42:06;100108.81;;;2.96;100.00
46347;BME280;32057;47.830;19.046;2022-12-07T00:44:31;100108.81;;;2.96;100.00
46347;BME280;32057;47.830;19.046;2022-12-07T00:46:56;100113.13;;;2.97;100.00
46347;BME280;32057;47.830;19.046;2022-12-07T00:49:22;100121.72;;;2.97;100.00
46347;BME280;32057;47.830;19.046;2022-12-07T00:51:48;100124.44;;;3.01;100.00
46347;BME280;32057;47.830;19.046;2022-12-07T00:54:14;100123.56;;;3.00;100.00
46347;BME280;32057;47.830;19.046;2022-12-07T00:56:39;100116.72;;;3.01;100.00
46347;BME280;32057;47.830;19.046;2022-12-07T00:59:05;100122.16;;;3.07;100.00
46347;BME280;32057;47.830;19.046;2022-12-07T01:01:34;100116.34;;;3.11;100.00
46347;BME280;32057;47.830;19.046;2022-12-07T01:04:00;100119.00;;;3.12;100.00
46347;BME280;32057;47.830;19.046;2022-12-07T01:06:29;100112.16;;;3.13;100.00
46347;BME280;32057;47.830;19.046;2022-12-07T01:08:54;100106.88;;;3.10;100.00
46347;BME280;32057;47.830;19.046;2022-12-07T01:11:23;100110.25;;;3.09;100.00
46347;BME280;32057;47.830;19.046;2022-12-07T01:13:54;100103.00;;;3.00;100.00
46347;BME280;32057;47.830;19.046;2022-12-07T01:16:21;100103.78;;;2.99;100.00
46347;BME280;32057;47.830;19.046;2022-12-07T01:18:49;100107.47;;;3.04;100.00
46347;BME280;32057;47.830;19.046;2022-12-07T01:21:18;100106.88;;;3.10;100.00
46347;BME280;32057;47.830;19.046;2022-12-07T01:23:44;100115.00;;;3.19;100.00
46347;BME280;32057;47.830;19.046;2022-12-07T01:26:12;100105.94;;;3.27;100.00
46347;BME280;32057;47.830;19.046;2022-12-07T01:28:38;100110.69;;;3.37;100.00
46347;BME280;32057;47.830;19.046;2022-12-07T01:31:10;100104.28;;;3.47;100.00
46347;BME280;32057;47.830;19.046;2022-12-07T01:33:44;100105.59;;;3.57;100.00
46347;BME280;32057;47.830;19.046;2022-12-07T01:38:39;100093.47;;;3.74;100.00
46347;BME280;32057;47.830;19.046;2022-12-07T01:41:05;100093.75;;;3.80;100.00
46347;BME280;32057;47.830;19.046;2022-12-07T01:43:32;100087.75;;;3.81;100.00
46347;BME280;32057;47.830;19.046;2022-12-07T01:45:58;100083.56;;;3.83;100.00
46347;BME280;32057;47.830;19.046;2022-12-07T01:48:44;100086.22;;;3.85;100.00
46347;BME280;32057;47.830;19.046;2022-12-07T01:51:11;100084.59;;;3.87;100.00
46347;BME280;32057;47.830;19.046;2022-12-07T01:53:43;100083.28;;;3.96;100.00
46347;BME280;32057;47.830;19.046;2022-12-07T01:56:17;100075.63;;;3.98;100.00
46347;BME280;32057;47.830;19.046;2022-12-07T01:58:44;100070.28;;;3.93;100.00
46347;BME280;32057;47.830;19.046;2022-12-07T02:01:10;100079.91;;;3.97;100.00
46347;BME280;32057;47.830;19.046;2022-12-07T02:03:42;100082.69;;;4.02;100.00
46347;BME280;32057;47.830;19.046;2022-12-07T02:06:08;100092.03;;;4.00;100.00
46347;BME280;32057;47.830;19.046;2022-12-07T02:08:38;100088.88;;;4.07;100.00
46347;BME280;32057;47.830;19.046;2022-12-07T02:11:05;100086.53;;;4.12;100.00
46347;BME280;32057;47.830;19.046;2022-12-07T02:13:34;100084.13;;;4.16;100.00
46347;BME280;32057;47.830;19.046;2022-12-07T02:24:30;100080.75;;;4.17;100.00
46347;BME280;32057;47.830;19.046;2022-12-07T02:32:42;100077.63;;;4.05;100.00
46347;BME280;32057;47.830;19.046;2022-12-07T02:35:17;100077.34;;;3.97;100.00
46347;BME280;32057;47.830;19.046;2022-12-07T02:37:57;100084.72;;;3.90;100.00
46347;BME280;32057;47.830;19.046;2022-12-07T02:40:33;100067.50;;;3.89;100.00
46347;BME280;32057;47.830;19.046;2022-12-07T02:43:06;100069.41;;;3.93;100.00
46347;BME280;32057;47.830;19.046;2022-12-07T02:45:34;100076.06;;;3.88;100.00
46347;BME280;32057;47.830;19.046;2022-12-07T02:48:00;100070.22;;;3.92;100.00
46347;BME280;32057;47.830;19.046;2022-12-07T02:50:27;100068.03;;;4.01;100.00
46347;BME280;32057;47.830;19.046;2022-12-07T02:52:53;100074.25;;;4.06;100.00
46347;BME280;32057;47.830;19.046;2022-12-07T02:55:21;100065.03;;;4.11;100.00
46347;BME280;32057;47.830;19.046;2022-12-07T03:00:19;100064.22;;;4.12;100.00
46347;BME280;32057;47.830;19.046;2022-12-07T03:18:12;100060.41;;;4.24;100.00
46347;BME280;32057;47.830;19.046;2022-12-07T03:20:42;100057.84;;;4.24;100.00
46347;BME280;32057;47.830;19.046;2022-12-07T03:23:09;100058.69;;;4.24;100.00
46347;BME280;32057;47.830;19.046;2022-12-07T03:25:43;100058.63;;;4.23;100.00
46347;BME280;32057;47.830;19.046;2022-12-07T03:28:09;100058.56;;;4.21;100.00
46347;BME280;32057;47.830;19.046;2022-12-07T03:30:42;100060.25;;;4.21;100.00
46347;BME280;32057;47.830;19.046;2022-12-07T03:33:14;100059.41;;;4.20;100.00
46347;BME280;32057;47.830;19.046;2022-12-07T03:35:44;100059.56;;;4.25;100.00
46347;BME280;32057;47.830;19.046;2022-12-07T03:43:15;100058.31;;;4.15;100.00
46347;BME280;32057;47.830;19.046;2022-12-07T03:45:43;100054.88;;;4.14;100.00
46347;BME280;32057;47.830;19.046;2022-12-07T03:48:52;100057.28;;;4.11;100.00
46347;BME280;32057;47.830;19.046;2022-12-07T03:51:39;100059.75;;;4.08;100.00
46347;BME280;32057;47.830;19.046;2022-12-07T03:54:15;100063.91;;;4.05;100.00
46347;BME280;32057;47.830;19.046;2022-12-07T03:56:43;100052.72;;;4.04;100.00
46347;BME280;32057;47.830;19.046;2022-12-07T03:59:11;100064.03;;;4.08;100.00
46347;BME280;32057;47.830;19.046;2022-12-07T04:01:38;100063.97;;;4.06;100.00
46347;BME280;32057;47.830;19.046;2022-12-07T04:04:03;100060.63;;;4.09;100.00
46347;BME280;32057;47.830;19.046;2022-12-07T04:06:28;100065.94;;;4.12;100.00
46347;BME280;32057;47.830;19.046;2022-12-07T04:08:54;100059.88;;;4.11;100.00
46347;BME280;32057;47.830;19.046;2022-12-07T04:11:19;100056.63;;;4.15;100.00
46347;BME280;32057;47.830;19.046;2022-12-07T04:13:45;100055.00;;;4.17;100.00
46347;BME280;32057;47.830;19.046;2022-12-07T04:16:33;100056.88;;;4.22;100.00
46347;BME280;32057;47.830;19.046;2022-12-07T04:18:58;100054.34;;;4.02;100.00
46347;BME280;32057;47.830;19.046;2022-12-07T04:21:24;100047.44;;;4.01;100.00
46347;BME280;32057;47.830;19.046;2022-12-07T04:23:49;100060.56;;;4.07;100.00
46347;BME280;32057;47.830;19.046;2022-12-07T04:26:15;100060.88;;;4.15;100.00
46347;BME280;32057;47.830;19.046;2022-12-07T04:28:40;100052.44;;;4.17;100.00
46347;BME280;32057;47.830;19.046;2022-12-07T04:31:05;100053.41;;;4.21;100.00
46347;BME280;32057;47.830;19.046;2022-12-07T04:33:31;100052.69;;;4.24;100.00
46347;BME280;32057;47.830;19.046;2022-12-07T04:35:56;100060.41;;;4.24;100.00
46347;BME280;32057;47.830;19.046;2022-12-07T04:38:22;100057.38;;;4.13;100.00
46347;BME280;32057;47.830;19.046;2022-12-07T04:40:47;100057.50;;;4.16;100.00
46347;BME280;32057;47.830;19.046;2022-12-07T04:43:12;100055.00;;;4.17;100.00
46347;BME280;32057;47.830;19.046;2022-12-07T04:45:38;100049.84;;;4.17;100.00
46347;BME280;32057;47.830;19.046;2022-12-07T04:48:03;100053.22;;;4.16;100.00
46347;BME280;32057;47.830;19.046;2022-12-07T04:50:29;100046.34;;;4.15;100.00
46347;BME280;32057;47.830;19.046;2022-12-07T04:52:54;100050.59;;;4.15;100.00
46347;BME280;32057;47.830;19.046;2022-12-07T04:55:19;100047.06;;;4.13;100.00
46347;BME280;32057;47.830;19.046;2022-12-07T04:57:45;100047.13;;;4.14;100.00
46347;BME280;32057;47.830;19.046;2022-12-07T05:00:10;100049.72;;;4.14;100.00
46347;BME280;32057;47.830;19.046;2022-12-07T05:02:36;100046.06;;;4.09;100.00
46347;BME280;32057;47.830;19.046;2022-12-07T05:05:01;100052.91;;;4.09;100.00
46347;BME280;32057;47.830;19.046;2022-12-07T05:07:27;100056.25;;;4.06;100.00
46347;BME280;32057;47.830;19.046;2022-12-07T05:09:52;100052.09;;;4.10;100.00
46347;BME280;32057;47.830;19.046;2022-12-07T05:12:17;100050.53;;;4.13;100.00
46347;BME280;32057;47.830;19.046;2022-12-07T05:14:43;100050.06;;;4.03;100.00
46347;BME280;32057;47.830;19.046;2022-12-07T05:17:08;100052.72;;;4.04;100.00
46347;BME280;32057;47.830;19.046;2022-12-07T05:19:34;100053.47;;;4.02;100.00
46347;BME280;32057;47.830;19.046;2022-12-07T05:21:59;100059.25;;;3.96;100.00
46347;BME280;32057;47.830;19.046;2022-12-07T05:24:24;100057.34;;;3.92;100.00
46347;BME280;32057;47.830;19.046;2022-12-07T05:26:50;100048.69;;;3.90;100.00
46347;BME280;32057;47.830;19.046;2022-12-07T05:29:16;100057.53;;;3.96;100.00
46347;BME280;32057;47.830;19.046;2022-12-07T05:31:43;100054.47;;;4.05;100.00
46347;BME280;32057;47.830;19.046;2022-12-07T05:34:10;100054.22;;;3.99;100.00
46347;BME280;32057;47.830;19.046;2022-12-07T05:36:36;100056.09;;;4.03;100.00
46347;BME280;32057;47.830;19.046;2022-12-07T05:39:01;100059.50;;;4.02;100.00
46347;BME280;32057;47.830;19.046;2022-12-07T05:41:27;100055.84;;;3.97;100.00
46347;BME280;32057;47.830;19.046;2022-12-07T05:44:11;100053.28;;;3.97;100.00
46347;BME280;32057;47.830;19.046;2022-12-07T05:46:36;100063.78;;;4.02;100.00
46347;BME280;32057;47.830;19.046;2022-12-07T05:49:02;100063.91;;;4.05;100.00
46347;BME280;32057;47.830;19.046;2022-12-07T05:51:27;100056.50;;;4.12;100.00
46347;BME280;32057;47.830;19.046;2022-12-07T05:53:53;100061.91;;;4.18;100.00
46347;BME280;32057;47.830;19.046;2022-12-07T05:56:18;100070.63;;;4.22;100.00
46347;BME280;32057;47.830;19.046;2022-12-07T05:58:44;100062.16;;;4.25;100.00
46347;BME280;32057;47.830;19.046;2022-12-07T06:01:28;100057.00;;;4.25;100.00
46347;BME280;32057;47.830;19.046;2022-12-07T06:03:53;100060.16;;;4.17;100.00
46347;BME280;32057;47.830;19.046;2022-12-07T06:06:19;100070.47;;;4.17;100.00
46347;BME280;32057;47.830;19.046;2022-12-07T06:08:44;100066.44;;;4.24;100.00
46347;BME280;32057;47.830;19.046;2022-12-07T06:11:09;100074.22;;;4.26;100.00
46347;BME280;32057;47.830;19.046;2022-12-07T06:13:53;100072.59;;;4.28;100.00
46347;BME280;32057;47.830;19.046;2022-12-07T06:16:19;100073.53;;;4.30;100.00
46347;BME280;32057;47.830;19.046;2022-12-07T06:18:44;100072.69;;;4.31;100.00
46347;BME280;32057;47.830;19.046;2022-12-07T06:21:09;100065.81;;;4.30;100.00
46347;BME280;32057;47.830;19.046;2022-12-07T06:23:35;100077.75;;;4.28;100.00
46347;BME280;32057;47.830;19.046;2022-12-07T06:26:00;100077.75;;;4.28;100.00
46347;BME280;32057;47.830;19.046;2022-12-07T06:28:26;100069.88;;;4.25;100.00
46347;BME280;32057;47.830;19.046;2022-12-07T06:30:58;100070.63;;;4.22;100.00
46347;BME280;32057;47.830;19.046;2022-12-07T06:33:24;100071.50;;;4.23;100.00
46347;BME280;32057;47.830;19.046;2022-12-07T06:35:49;100068.31;;;4.28;100.00
46347;BME280;32057;47.830;19.046;2022-12-07T06:38:15;100067.31;;;4.25;100.00
46347;BME280;32057;47.830;19.046;2022-12-07T06:40:40;100071.91;;;4.32;100.00
46347;BME280;32057;47.830;19.046;2022-12-07T06:43:06;100075.50;;;4.35;100.00
46347;BME280;32057;47.830;19.046;2022-12-07T06:45:31;100067.81;;;4.37;100.00
46347;BME280;32057;47.830;19.046;2022-12-07T06:47:56;100075.50;;;4.35;100.00
46347;BME280;32057;47.830;19.046;2022-12-07T06:50:22;100080.44;;;4.31;100.00
46347;BME280;32057;47.830;19.046;2022-12-07T06:52:47;100078.00;;;4.34;100.00
46347;BME280;32057;47.830;19.046;2022-12-07T06:55:12;100084.78;;;4.32;100.00
46347;BME280;32057;47.830;19.046;2022-12-07T06:57:38;100080.50;;;4.32;100.00
46347;BME280;32057;47.830;19.046;2022-12-07T07:00:04;100089.16;;;4.34;100.00
46347;BME280;32057;47.830;19.046;2022-12-07T07:02:29;100090.03;;;4.35;100.00
46347;BME280;32057;47.830;19.046;2022-12-07T07:04:55;100090.19;;;4.38;100.00
46347;BME280;32057;47.830;19.046;2022-12-07T07:07:20;100086.53;;;4.33;100.00
46347;BME280;32057;47.830;19.046;2022-12-07T07:09:45;100086.66;;;4.36;100.00
46347;BME280;32057;47.830;19.046;2022-12-07T07:12:11;100086.75;;;4.37;100.00
46347;BME280;32057;47.830;19.046;2022-12-07T07:14:36;100084.09;;;4.36;100.00
46347;BME280;32057;47.830;19.046;2022-12-07T07:17:02;100087.59;;;4.38;100.00
46347;BME280;32057;47.830;19.046;2022-12-07T07:19:27;100086.66;;;4.36;100.00
46347;BME280;32057;47.830;19.046;2022-12-07T07:21:52;100077.41;;;4.41;100.00
46347;BME280;32057;47.830;19.046;2022-12-07T07:24:18;100081.75;;;4.42;100.00
46347;BME280;32057;47.830;19.046;2022-12-07T07:26:43;100079.81;;;4.36;100.00
46347;BME280;32057;47.830;19.046;2022-12-07T07:29:09;100089.94;;;4.32;100.00
46347;BME280;32057;47.830;19.046;2022-12-07T07:31:34;100082.47;;;4.38;100.00
46347;BME280;32057;47.830;19.046;2022-12-07T07:34:01;100084.25;;;4.41;100.00
46347;BME280;32057;47.830;19.046;2022-12-07T07:36:26;100084.34;;;4.42;100.00
46347;BME280;32057;47.830;19.046;2022-12-07T07:38:51;100085.09;;;4.39;100.00
46347;BME280;32057;47.830;19.046;2022-12-07T07:41:17;100080.94;;;4.43;100.00
46347;BME280;32057;47.830;19.046;2022-12-07T07:43:43;100081.13;;;4.48;100.00
46347;BME280;32057;47.830;19.046;2022-12-07T07:46:08;100085.28;;;4.44;100.00
46347;BME280;32057;47.830;19.046;2022-12-07T07:48:33;100082.81;;;4.47;100.00
46347;BME280;32057;47.830;19.046;2022-12-07T07:50:59;100089.88;;;4.51;100.00
46347;BME280;32057;47.830;19.046;2022-12-07T07:53:24;100088.88;;;4.48;100.00
46347;BME280;32057;47.830;19.046;2022-12-07T07:55:51;100094.03;;;4.48;100.00
46347;BME280;32057;47.830;19.046;2022-12-07T07:58:17;100095.06;;;4.53;100.00
46347;BME280;32057;47.830;19.046;2022-12-07T08:00:43;100097.84;;;4.57;100.00
46347;BME280;32057;47.830;19.046;2022-12-07T08:03:08;100092.81;;;4.61;100.00
46347;BME280;32057;47.830;19.046;2022-12-07T08:05:33;100094.59;;;4.62;100.00
46347;BME280;32057;47.830;19.046;2022-12-07T08:07:59;100097.03;;;4.58;100.00
46347;BME280;32057;47.830;19.046;2022-12-07T08:10:24;100096.41;;;4.64;100.00
46347;BME280;32057;47.830;19.046;2022-12-07T08:12:50;100104.19;;;4.66;100.00
46347;BME280;32057;47.830;19.046;2022-12-07T08:15:37;100099.22;;;4.70;100.00
46347;BME280;32057;47.830;19.046;2022-12-07T08:18:02;100093.28;;;4.73;100.00
46347;BME280;32057;47.830;19.046;2022-12-07T08:20:30;100101.94;;;4.73;100.00
46347;BME280;32057;47.830;19.046;2022-12-07T08:22:56;100104.53;;;4.75;100.00
46347;BME280;32057;47.830;19.046;2022-12-07T08:25:22;100103.03;;;4.80;100.00
46347;BME280;32057;47.830;19.046;2022-12-07T08:27:48;100102.59;;;4.90;100.00
46347;BME280;32057;47.830;19.046;2022-12-07T08:30:13;100098.94;;;4.85;100.00
46347;BME280;32057;47.830;19.046;2022-12-07T08:32:39;100107.38;;;4.81;100.00
46347;BME280;32057;47.830;19.046;2022-12-07T08:35:05;100103.16;;;4.83;100.00
46347;BME280;32057;47.830;19.046;2022-12-07T08:37:31;100107.69;;;4.89;100.00
46347;BME280;32057;47.830;19.046;2022-12-07T08:39:56;100109.56;;;4.93;100.00
46347;BME280;32057;47.830;19.046;2022-12-07T08:42:22;100106.28;;;4.97;100.00
46347;BME280;32057;47.830;19.046;2022-12-07T08:44:52;100112.50;;;5.02;100.00
46347;BME280;32057;47.830;19.046;2022-12-07T08:47:18;100114.91;;;4.97;100.00
46347;BME280;32057;47.830;19.046;2022-12-07T08:49:46;100111.56;;;5.00;100.00
46347;BME280;32057;47.830;19.046;2022-12-07T08:52:15;100117.72;;;5.04;100.00
46347;BME280;32057;47.830;19.046;2022-12-07T08:54:41;100120.41;;;5.07;100.00
46347;BME280;32057;47.830;19.046;2022-12-07T08:57:07;100116.25;;;5.10;100.00
46347;BME280;32057;47.830;19.046;2022-12-07T08:59:34;100111.47;;;5.19;100.00
46347;BME280;32057;47.830;19.046;2022-12-07T09:02:01;100123.97;;;5.33;100.00
46347;BME280;32057;47.830;19.046;2022-12-07T09:04:26;100116.44;;;5.37;100.00
46347;BME280;32057;47.830;19.046;2022-12-07T09:06:53;100118.19;;;5.38;100.00
46347;BME280;32057;47.830;19.046;2022-12-07T09:09:19;100111.72;;;5.50;100.00
46347;BME280;32057;47.830;19.046;2022-12-07T09:11:44;100106.16;;;5.62;100.00
46347;BME280;32057;47.830;19.046;2022-12-07T09:14:10;100100.44;;;5.70;100.00
46347;BME280;32057;47.830;19.046;2022-12-07T09:16:36;100102.41;;;5.77;100.00
46347;BME280;32057;47.830;19.046;2022-12-07T09:19:01;100099.00;;;5.78;100.00
46347;BME280;32057;47.830;19.046;2022-12-07T09:21:27;100097.75;;;5.91;100.00
46347;BME280;32057;47.830;19.046;2022-12-07T09:23:52;100105.75;;;5.97;100.00
46347;BME280;32057;47.830;19.046;2022-12-07T09:26:17;100098.03;;;5.99;100.00
46347;BME280;32057;47.830;19.046;2022-12-07T09:28:43;100103.38;;;6.04;100.00
46347;BME280;32057;47.830;19.046;2022-12-07T09:31:08;100100.34;;;5.93;100.00
46347;BME280;32057;47.830;19.046;2022-12-07T09:33:33;100098.63;;;5.92;100.00
46347;BME280;32057;47.830;19.046;2022-12-07T09:35:59;100099.22;;;5.85;100.00
46347;BME280;32057;47.830;19.046;2022-12-07T09:38:24;100101.31;;;5.71;100.00
46347;BME280;32057;47.830;19.046;2022-12-07T09:40:51;100089.44;;;5.76;100.00
46347;BME280;32057;47.830;19.046;2022-12-07T09:43:20;100081.84;;;5.81;100.00
46347;BME280;32057;47.830;19.046;2022-12-07T09:45:48;100081.06;;;5.82;100.00
46347;BME280;32057;47.830;19.046;2022-12-07T09:48:18;100068.94;;;5.81;100.00
46347;BME280;32057;47.830;19.046;2022-12-07T09:50:45;100072.41;;;5.81;100.00
46347;BME280;32057;47.830;19.046;2022-12-07T09:53:25;100073.59;;;5.91;100.00
46347;BME280;32057;47.830;19.046;2022-12-07T09:55:51;100073.09;;;6.00;100.00
46347;BME280;32057;47.830;19.046;2022-12-07T09:58:22;100074.91;;;6.02;100.00
46347;BME280;32057;47.830;19.046;2022-12-07T10:00:50;100075.97;;;6.09;100.00
46347;BME280;32057;47.830;19.046;2022-12-07T10:03:17;100068.44;;;6.15;100.00
46347;BME280;32057;47.830;19.046;2022-12-07T10:05:46;100072.66;;;6.11;99.91
46347;BME280;32057;47.830;19.046;2022-12-07T10:08:13;100069.00;;;6.06;100.00
46347;BME280;32057;47.830;19.046;2022-12-07T10:10:41;100070.72;;;6.06;99.07
46347;BME280;32057;47.830;19.046;2022-12-07T10:13:14;100063.63;;;6.00;100.00
46347;BME280;32057;47.830;19.046;2022-12-07T10:15:45;100065.41;;;6.01;100.00
46347;BME280;32057;47.830;19.046;2022-12-07T10:23:35;100058.22;;;5.94;100.00
46347;BME280;32057;47.830;19.046;2022-12-07T10:26:29;100064.44;;;5.99;100.00
46347;BME280;32057;47.830;19.046;2022-12-07T10:28:56;100063.56;;;5.98;100.00
46347;BME280;32057;47.830;19.046;2022-12-07T10:31:23;100046.91;;;5.90;100.00
46347;BME280;32057;47.830;19.046;2022-12-07T10:33:54;100053.72;;;5.88;100.00
46347;BME280;32057;47.830;19.046;2022-12-07T10:39:02;100049.72;;;5.96;100.00
46347;BME280;32057;47.830;19.046;2022-12-07T10:41:28;100055.59;;;5.92;100.00
46347;BME280;32057;47.830;19.046;2022-12-07T10:43:56;100055.31;;;5.85;100.00
46347;BME280;32057;47.830;19.046;2022-12-07T10:52:00;100047.16;;;5.96;100.00
46347;BME280;32057;47.830;19.046;2022-12-07T10:55:03;100049.44;;;5.89;100.00
46347;BME280;32057;47.830;19.046;2022-12-07T11:17:03;100001.25;;;6.15;99.47
46347;BME280;32057;47.830;19.046;2022-12-07T11:25:41;100010.19;;;6.23;99.70
46347;BME280;32057;47.830;19.046;2022-12-07T11:28:22;100022.38;;;6.29;97.64
46347;BME280;32057;47.830;19.046;2022-12-07T11:31:07;100020.91;;;6.35;96.06
46347;BME280;32057;47.830;19.046;2022-12-07T11:36:37;100021.66;;;6.33;96.96
46347;BME280;32057;47.830;19.046;2022-12-07T11:39:21;100018.47;;;6.40;98.68
46347;BME280;32057;47.830;19.046;2022-12-07T11:41:54;100019.13;;;6.34;99.00
46347;BME280;32057;47.830;19.046;2022-12-07T11:49:54;100012.78;;;6.25;95.54
46347;BME280;32057;47.830;19.046;2022-12-07T11:52:30;100010.94;;;6.21;94.66
46347;BME280;32057;47.830;19.046;2022-12-07T11:55:01;100007.63;;;6.25;95.37
46347;BME280;32057;47.830;19.046;2022-12-07T11:57:42;100004.41;;;6.32;96.77
46347;BME280;32057;47.830;19.046;2022-12-07T12:00:15;99998.63;;;6.39;97.86
46347;BME280;32057;47.830;19.046;2022-12-07T12:03:01;99998.84;;;6.47;97.02
46347;BME280;32057;47.830;19.046;2022-12-07T12:05:29;99987.63;;;6.46;95.96
46347;BME280;32057;47.830;19.046;2022-12-07T12:08:14;99986.91;;;6.50;93.79
46347;BME280;32057;47.830;19.046;2022-12-07T12:13:33;99991.69;;;6.38;94.23
46347;BME280;32057;47.830;19.046;2022-12-07T12:21:29;99980.13;;;6.27;94.82
46347;BME280;32057;47.830;19.046;2022-12-07T12:24:14;99976.53;;;6.22;96.46
46347;BME280;32057;47.830;19.046;2022-12-07T12:26:50;99984.03;;;6.14;95.60
46347;BME280;32057;47.830;19.046;2022-12-07T12:29:27;99979.38;;;5.78;96.34
46347;BME280;32057;47.830;19.046;2022-12-07T12:32:20;99994.00;;;5.53;96.99
46347;BME280;32057;47.830;19.046;2022-12-07T12:35:22;100000.75;;;5.50;98.25
46347;BME280;32057;47.830;19.046;2022-12-07T12:37:48;99997.19;;;5.46;98.23
46347;BME280;32057;47.830;19.046;2022-12-07T12:42:51;99994.22;;;5.59;94.95
46347;BME280;32057;47.830;19.046;2022-12-07T12:45:25;99996.97;;;5.64;94.98
46347;BME280;32057;47.830;19.046;2022-12-07T12:48:00;99994.25;;;5.61;96.41
46347;BME280;32057;47.830;19.046;2022-12-07T12:50:32;100003.00;;;5.65;95.80
46347;BME280;32057;47.830;19.046;2022-12-07T12:53:22;99999.41;;;5.61;96.15
46347;BME280;32057;47.830;19.046;2022-12-07T12:58:41;99996.19;;;5.67;95.83
46347;BME280;32057;47.830;19.046;2022-12-07T13:04:00;99989.72;;;5.54;95.72
46347;BME280;32057;47.830;19.046;2022-12-07T13:08:53;99998.59;;;5.62;96.75
46347;BME280;32057;47.830;19.046;2022-12-07T13:11:33;99993.56;;;5.65;96.84
46347;BME280;32057;47.830;19.046;2022-12-07T13:19:55;99997.28;;;5.73;96.71
46347;BME280;32057;47.830;19.046;2022-12-07T13:25:28;99996.66;;;5.81;96.53
46347;BME280;32057;47.830;19.046;2022-12-07T13:28:08;100006.16;;;5.82;94.47
46347;BME280;32057;47.830;19.046;2022-12-07T13:30:46;100003.75;;;5.86;95.36
46347;BME280;32057;47.830;19.046;2022-12-07T13:33:14;100011.88;;;5.97;94.37
46347;BME280;32057;47.830;19.046;2022-12-07T13:35:42;100005.88;;;5.98;93.96
46347;BME280;32057;47.830;19.046;2022-12-07T13:41:14;100003.78;;;5.88;93.89
46347;BME280;32057;47.830;19.046;2022-12-07T13:43:49;100001.94;;;5.84;94.74
46347;BME280;32057;47.830;19.046;2022-12-07T13:46:14;100010.50;;;5.83;95.88
46347;BME280;32057;47.830;19.046;2022-12-07T13:48:47;100006.25;;;5.85;95.37
46347;BME280;32057;47.830;19.046;2022-12-07T13:51:25;100021.25;;;5.69;95.02
46347;BME280;32057;47.830;19.046;2022-12-07T13:54:08;100016.09;;;5.69;94.78
46347;BME280;32057;47.830;19.046;2022-12-07T13:56:35;100020.41;;;5.70;95.57
46347;BME280;32057;47.830;19.046;2022-12-07T13:59:02;100019.53;;;5.70;97.17
46347;BME280;32057;47.830;19.046;2022-12-07T14:01:30;100019.91;;;5.56;97.00
46347;BME280;32057;47.830;19.046;2022-12-07T14:04:33;100019.38;;;5.65;97.19
46347;BME280;32057;47.830;19.046;2022-12-07T14:07:00;100019.38;;;5.65;96.07
46347;BME280;32057;47.830;19.046;2022-12-07T14:09:27;100013.53;;;5.71;98.33
46347;BME280;32057;47.830;19.046;2022-12-07T14:11:55;100023.09;;;5.73;96.99
46347;BME280;32057;47.830;19.046;2022-12-07T14:14:24;100024.97;;;5.77;98.20
46347;BME280;32057;47.830;19.046;2022-12-07T14:17:16;100015.34;;;5.73;99.35
46347;BME280;32057;47.830;19.046;2022-12-07T14:22:24;100015.03;;;5.64;98.34
46347;BME280;32057;47.830;19.046;2022-12-07T14:24:50;100012.31;;;5.61;97.98
46347;BME280;32057;47.830;19.046;2022-12-07T14:27:21;100018.31;;;5.60;99.12
46347;BME280;32057;47.830;19.046;2022-12-07T14:29:48;100015.69;;;5.58;99.26
46347;BME280;32057;47.830;19.046;2022-12-07T14:32:24;100012.75;;;5.48;99.98
46347;BME280;32057;47.830;19.046;2022-12-07T14:37:21;100027.09;;;5.41;100.00
46347;BME280;32057;47.830;19.046;2022-12-07T14:39:47;100022.72;;;5.38;100.00
46347;BME280;32057;47.830;19.046;2022-12-07T14:42:12;100022.84;;;5.17;100.00
46347;BME280;32057;47.830;19.046;2022-12-07T14:44:37;100022.75;;;5.16;100.00
46347;BME280;32057;47.830;19.046;2022-12-07T14:47:03;100026.16;;;5.15;100.00
46347;BME280;32057;47.830;19.046;2022-12-07T14:49:28;100022.53;;;5.10;100.00
46347;BME280;32057;47.830;19.046;2022-12-07T14:51:53;100023.47;;;5.12;100.00
46347;BME280;32057;47.830;19.046;2022-12-07T14:54:20;100028.47;;;5.07;100.00